createdAt,value
2018-06-08T00:00:04.734Z,17.10
2018-06-08T00:02:31.958Z,14.50
2018-06-08T00:04:59.139Z,13.20
2018-06-08T00:07:26.334Z,12.70
2018-06-08T00:09:53.577Z,14.33
2018-06-08T00:12:20.767Z,11.97
2018-06-08T00:14:47.971Z,10.93
2018-06-08T00:17:15.165Z,11.40
2018-06-08T00:19:42.361Z,13.50
2018-06-08T00:22:09.548Z,11.87
2018-06-08T00:24:36.753Z,11.80
2018-06-08T00:27:04.108Z,11.20
2018-06-08T00:29:31.295Z,11.40
2018-06-08T00:31:58.497Z,12.50
2018-06-08T00:34:25.831Z,12.43
2018-06-08T00:36:53.039Z,12.87
2018-06-08T00:39:20.224Z,12.10
2018-06-08T00:41:47.409Z,12.23
2018-06-08T00:44:14.604Z,13.50
2018-06-08T00:46:41.803Z,11.10
2018-06-08T00:49:08.980Z,12.97
2018-06-08T00:51:36.152Z,10.70
2018-06-08T00:54:03.366Z,11.30
2018-06-08T00:56:42.158Z,12.40
2018-06-08T00:59:09.338Z,14.10
2018-06-08T01:01:36.530Z,18.10
2018-06-08T01:04:03.763Z,19.20
2018-06-08T01:06:30.946Z,19.97
2018-06-08T01:08:58.133Z,18.67
2018-06-08T01:11:25.361Z,18.90
2018-06-08T01:13:52.555Z,19.37
2018-06-08T01:16:19.757Z,20.20
2018-06-08T01:18:46.937Z,19.20
2018-06-08T01:21:14.165Z,20.13
2018-06-08T01:23:41.386Z,17.53
2018-06-08T01:26:08.635Z,16.80
2018-06-08T01:28:35.872Z,16.00
2018-06-08T01:31:03.105Z,14.57
2018-06-08T01:33:30.322Z,17.10
2018-06-08T01:35:57.582Z,16.07
2018-06-08T01:38:24.801Z,13.60
2018-06-08T01:40:52.043Z,15.27
2018-06-08T01:43:19.376Z,15.40
2018-06-08T01:45:46.603Z,13.17
2018-06-08T01:48:13.827Z,12.47
2018-06-08T01:50:41.050Z,13.60
2018-06-08T01:53:08.269Z,13.63
2018-06-08T01:55:35.505Z,13.53
2018-06-08T01:58:02.753Z,11.73
2018-06-08T02:00:29.982Z,10.03
2018-06-08T02:02:57.211Z,10.63
2018-06-08T02:05:24.490Z,9.57
2018-06-08T02:07:51.725Z,9.17
2018-06-08T02:10:18.949Z,7.70
2018-06-08T02:12:46.220Z,10.13
2018-06-08T02:15:13.478Z,10.23
2018-06-08T02:17:40.721Z,10.63
2018-06-08T02:20:07.948Z,8.83
2018-06-08T02:22:35.193Z,9.80
2018-06-08T02:25:02.434Z,10.90
2018-06-08T02:27:29.669Z,9.27
2018-06-08T02:29:56.915Z,8.83
2018-06-08T02:32:24.155Z,7.83
2018-06-08T02:34:51.377Z,9.00
2018-06-08T02:37:18.606Z,7.90
2018-06-08T02:39:45.839Z,8.20
2018-06-08T02:42:13.073Z,6.47
2018-06-08T02:44:40.305Z,7.63
2018-06-08T02:47:07.533Z,6.50
2018-06-08T02:49:34.784Z,6.83
2018-06-08T02:52:02.017Z,8.00
2018-06-08T02:54:29.233Z,7.40
2018-06-08T02:56:56.470Z,7.17
2018-06-08T02:59:23.690Z,7.17
2018-06-08T03:01:50.924Z,7.53
2018-06-08T03:04:18.165Z,7.53
2018-06-08T03:06:45.410Z,7.50
2018-06-08T03:09:12.642Z,7.40
2018-06-08T03:11:39.903Z,8.00
2018-06-08T03:14:07.162Z,7.53
2018-06-08T03:16:34.396Z,7.57
2018-06-08T03:19:01.622Z,8.23
2018-06-08T03:21:28.942Z,8.20
2018-06-08T03:23:56.170Z,7.60
2018-06-08T03:26:23.396Z,7.80
2018-06-08T03:28:50.613Z,8.37
2018-06-08T03:31:17.886Z,7.70
2018-06-08T03:33:45.106Z,9.13
2018-06-08T03:36:12.397Z,8.57
2018-06-08T03:38:39.629Z,9.60
2018-06-08T03:41:06.848Z,9.50
2018-06-08T03:43:34.102Z,10.37
2018-06-08T03:46:01.394Z,10.23
2018-06-08T03:48:28.638Z,11.00
2018-06-08T03:50:55.875Z,12.10
2018-06-08T03:53:23.107Z,12.47
2018-06-08T03:55:50.341Z,11.97
2018-06-08T03:58:17.586Z,13.10
2018-06-08T04:00:44.869Z,12.03
2018-06-08T04:03:12.113Z,12.40
2018-06-08T04:05:39.324Z,11.90
2018-06-08T04:08:06.557Z,13.40
2018-06-08T04:10:33.807Z,12.90
2018-06-08T04:13:01.033Z,12.70
2018-06-08T04:15:28.223Z,14.20
2018-06-08T04:17:55.438Z,13.27
2018-06-08T04:20:22.669Z,14.30
2018-06-08T04:22:49.901Z,13.00
2018-06-08T04:25:17.127Z,13.37
2018-06-08T04:27:44.337Z,14.83
2018-06-08T04:30:11.570Z,15.17
2018-06-08T04:32:38.849Z,16.10
2018-06-08T04:35:06.094Z,15.27
2018-06-08T04:37:33.280Z,14.43
2018-06-08T04:40:00.514Z,13.47
2018-06-08T04:42:27.732Z,11.47
2018-06-08T04:44:54.958Z,12.50
2018-06-08T04:47:22.191Z,12.20
2018-06-08T04:49:49.421Z,11.93
2018-06-08T04:52:17.792Z,13.47
2018-06-08T04:54:45.028Z,13.60
2018-06-08T04:57:12.263Z,12.70
2018-06-08T04:59:39.493Z,13.67
2018-06-08T05:02:06.728Z,16.23
2018-06-08T05:04:33.979Z,14.80
2018-06-08T05:07:01.185Z,15.83
2018-06-08T05:09:28.622Z,14.40
2018-06-08T05:11:55.857Z,14.60
2018-06-08T05:14:23.086Z,11.87
2018-06-08T05:16:53.085Z,13.13
2018-06-08T05:19:20.317Z,12.90
2018-06-08T05:21:47.791Z,11.60
2018-06-08T05:24:15.172Z,12.73
2018-06-08T05:26:42.400Z,11.43
2018-06-08T05:29:09.687Z,12.53
2018-06-08T05:31:36.933Z,12.60
2018-06-08T05:34:04.180Z,12.47
2018-06-08T05:36:31.396Z,12.23
2018-06-08T05:38:58.621Z,11.70
2018-06-08T05:41:25.933Z,12.67
2018-06-08T05:43:53.152Z,13.23
2018-06-08T05:46:20.581Z,10.60
2018-06-08T05:48:47.806Z,9.73
2018-06-08T05:51:15.048Z,11.20
2018-06-08T05:53:42.296Z,11.23
2018-06-08T05:56:09.514Z,12.23
2018-06-08T05:58:36.750Z,15.27
2018-06-08T06:01:04.188Z,23.97
2018-06-08T06:03:31.409Z,15.33
2018-06-08T06:05:58.642Z,14.50
2018-06-08T06:08:25.901Z,13.57
2018-06-08T06:10:53.179Z,14.17
2018-06-08T06:13:20.379Z,13.60
2018-06-08T06:15:47.601Z,13.30
2018-06-08T06:18:14.818Z,13.90
2018-06-08T06:20:42.077Z,10.97
2018-06-08T06:23:09.276Z,11.10
2018-06-08T06:25:36.477Z,12.03
2018-06-08T06:28:03.778Z,11.87
2018-06-08T06:30:31.007Z,11.17
2018-06-08T06:32:58.226Z,11.37
2018-06-08T06:35:25.448Z,11.67
2018-06-08T06:37:52.664Z,10.60
2018-06-08T06:40:19.866Z,11.70
2018-06-08T06:42:47.071Z,11.97
2018-06-08T06:45:14.268Z,10.57
2018-06-08T06:47:41.469Z,11.60
2018-06-08T06:50:08.654Z,12.57
2018-06-08T06:52:35.845Z,11.30
2018-06-08T06:55:03.082Z,11.27
2018-06-08T06:57:30.305Z,12.50
2018-06-08T06:59:57.532Z,12.20
2018-06-08T07:02:24.745Z,12.00
2018-06-08T07:04:51.946Z,11.47
2018-06-08T07:07:19.150Z,12.13
2018-06-08T07:09:46.341Z,12.23
2018-06-08T07:12:13.552Z,11.40
2018-06-08T07:14:40.743Z,14.73
2018-06-08T07:17:08.023Z,14.00
2018-06-08T07:19:35.209Z,15.13
2018-06-08T07:22:02.409Z,14.30
2018-06-08T07:24:29.776Z,14.67
2018-06-08T07:26:56.978Z,15.57
2018-06-08T07:29:24.177Z,14.80
2018-06-08T07:31:51.449Z,15.80
2018-06-08T07:34:18.593Z,16.60
2018-06-08T07:36:45.783Z,16.20
2018-06-08T07:39:12.978Z,16.60
2018-06-08T07:41:40.177Z,16.60
2018-06-08T07:44:07.382Z,15.90
2018-06-08T07:46:34.583Z,15.43
2018-06-08T07:49:01.784Z,16.17
2018-06-08T07:51:28.977Z,17.00
2018-06-08T07:53:56.169Z,14.67
2018-06-08T07:56:23.365Z,15.67
2018-06-08T07:58:50.565Z,14.20
2018-06-08T08:01:17.753Z,15.90
2018-06-08T08:03:44.963Z,17.90
2018-06-08T08:06:12.178Z,19.77
2018-06-08T08:08:39.372Z,19.37
2018-06-08T08:11:06.571Z,21.70
2018-06-08T08:13:33.797Z,22.00
2018-06-08T08:16:01.049Z,21.40
2018-06-08T08:18:28.281Z,21.40
2018-06-08T08:20:55.515Z,22.50
2018-06-08T08:23:22.741Z,20.70
2018-06-08T08:25:49.969Z,19.87
2018-06-08T08:28:17.189Z,18.57
2018-06-08T08:30:44.465Z,19.03
2018-06-08T08:33:11.665Z,18.40
2018-06-08T08:35:38.882Z,18.70
2018-06-08T08:38:06.113Z,14.93
2018-06-08T08:40:33.389Z,17.53
2018-06-08T08:43:00.633Z,17.50
2018-06-08T08:45:27.881Z,15.13
2018-06-08T08:47:55.107Z,16.40
2018-06-08T08:50:22.332Z,15.30
2018-06-08T08:52:49.555Z,14.40
2018-06-08T08:55:16.784Z,17.90
2018-06-08T08:57:44.005Z,19.60
2018-06-08T09:00:11.228Z,20.50
2018-06-08T09:02:38.444Z,18.87
2018-06-08T09:05:05.897Z,18.80
2018-06-08T09:07:33.119Z,17.10
2018-06-08T09:10:00.405Z,15.67
2018-06-08T09:12:27.669Z,14.83
2018-06-08T09:14:54.900Z,16.07
2018-06-08T09:17:22.133Z,18.20
2018-06-08T09:19:49.356Z,20.17
2018-06-08T09:22:16.605Z,19.93
2018-06-08T09:24:43.824Z,19.07
2018-06-08T09:27:11.060Z,20.17
2018-06-08T09:29:38.302Z,21.40
2018-06-08T09:32:05.641Z,21.33
2018-06-08T09:34:32.878Z,20.67
2018-06-08T09:37:00.093Z,21.10
2018-06-08T09:39:27.348Z,21.67
2018-06-08T09:41:54.590Z,23.63
2018-06-08T09:44:21.870Z,23.80
2018-06-08T09:46:49.048Z,21.30
2018-06-08T09:49:16.301Z,19.67
2018-06-08T09:51:43.548Z,20.77
2018-06-08T09:54:11.108Z,18.53
2018-06-08T09:56:38.324Z,17.13
2018-06-08T09:59:05.568Z,16.63
2018-06-08T10:01:32.797Z,15.78
2018-06-08T10:04:00.038Z,14.87
2018-06-08T10:06:27.269Z,15.32
2018-06-08T10:08:54.484Z,14.83
2018-06-08T10:11:21.784Z,15.95
2018-06-08T10:13:48.913Z,16.77
2018-06-08T10:16:16.135Z,15.90
2018-06-08T10:18:43.325Z,15.80
2018-06-08T10:21:10.537Z,15.75
2018-06-08T10:23:37.746Z,15.90
2018-06-08T10:26:04.956Z,14.43
2018-06-08T10:28:32.156Z,12.63
2018-06-08T10:30:59.368Z,14.05
2018-06-08T10:33:26.565Z,16.07
2018-06-08T10:35:53.782Z,15.37
2018-06-08T10:38:20.989Z,13.03
2018-06-08T10:40:48.202Z,13.18
2018-06-08T10:43:15.401Z,12.07
2018-06-08T10:45:42.617Z,10.72
2018-06-08T10:48:09.809Z,8.85
2018-06-08T10:50:37.004Z,10.20
2018-06-08T10:53:04.394Z,8.58
2018-06-08T10:55:31.605Z,8.30
2018-06-08T10:57:58.801Z,9.13
2018-06-08T11:00:26.006Z,10.00
2018-06-08T11:02:53.228Z,8.30
2018-06-08T11:05:20.512Z,8.58
2018-06-08T11:07:47.720Z,10.82
2018-06-08T11:10:14.917Z,11.60
2018-06-08T11:12:42.201Z,8.30
2018-06-08T11:15:09.422Z,9.90
2018-06-08T11:17:36.641Z,10.78
2018-06-08T11:20:03.897Z,10.48
2018-06-08T11:22:31.126Z,9.70
2018-06-08T11:24:58.355Z,10.60
2018-06-08T11:27:25.593Z,10.45
2018-06-08T11:29:52.818Z,11.28
2018-06-08T11:32:20.044Z,10.95
2018-06-08T11:34:47.330Z,10.35
2018-06-08T11:37:14.617Z,10.80
2018-06-08T11:39:41.852Z,10.38
2018-06-08T11:42:09.088Z,10.70
2018-06-08T11:44:36.310Z,10.75
2018-06-08T11:47:03.711Z,11.28
2018-06-08T11:49:30.935Z,12.43
2018-06-08T11:51:58.157Z,12.23
2018-06-08T11:54:25.381Z,9.78
2018-06-08T11:56:52.601Z,12.45
2018-06-08T11:59:19.825Z,12.98
2018-06-08T12:01:47.108Z,11.43
2018-06-08T12:04:14.304Z,12.63
2018-06-08T12:06:41.533Z,12.73
2018-06-08T12:09:08.756Z,13.03
2018-06-08T12:11:36.238Z,13.38
2018-06-08T12:14:03.589Z,12.18
2018-06-08T12:16:30.813Z,12.00
2018-06-08T12:18:58.041Z,11.55
2018-06-08T12:21:25.239Z,11.57
2018-06-08T12:23:52.434Z,13.62
2018-06-08T12:26:19.641Z,13.80
2018-06-08T12:28:46.852Z,12.30
2018-06-08T12:31:14.063Z,13.22
2018-06-08T12:33:41.297Z,12.58
2018-06-08T12:36:08.508Z,13.13
2018-06-08T12:38:35.710Z,11.80
2018-06-08T12:41:03.988Z,12.88
2018-06-08T12:43:31.205Z,13.03
2018-06-08T12:45:58.409Z,12.78
2018-06-08T12:48:25.639Z,14.18
2018-06-08T12:50:52.836Z,12.70
2018-06-08T12:53:20.686Z,12.63
2018-06-08T12:55:47.885Z,13.13
2018-06-08T12:58:15.104Z,13.35
2018-06-08T13:00:42.314Z,12.45
2018-06-08T13:03:09.568Z,13.25
2018-06-08T13:05:36.750Z,12.30
2018-06-08T13:08:03.994Z,13.25
2018-06-08T13:10:31.197Z,13.48
2018-06-08T13:12:58.416Z,12.33
2018-06-08T13:15:25.631Z,12.45
2018-06-08T13:17:52.825Z,12.07
2018-06-08T13:20:20.058Z,12.80
2018-06-08T13:22:47.264Z,11.88
2018-06-08T13:25:14.477Z,12.75
2018-06-08T13:27:41.879Z,12.53
2018-06-08T13:30:13.332Z,13.22
2018-06-08T13:32:40.756Z,12.33
2018-06-08T13:35:07.981Z,14.03
2018-06-08T13:37:35.189Z,13.90
2018-06-08T13:40:05.709Z,11.60
2018-06-08T13:42:32.929Z,12.03
2018-06-08T13:45:00.149Z,9.98
2018-06-08T13:47:27.348Z,10.08
2018-06-08T13:49:54.556Z,10.68
2018-06-08T13:52:21.761Z,9.70
2018-06-08T13:54:48.987Z,9.90
2018-06-08T13:57:18.300Z,9.78
2018-06-08T13:59:47.825Z,9.75
2018-06-08T14:02:15.085Z,10.23
2018-06-08T14:04:42.281Z,10.05
2018-06-08T14:07:09.481Z,9.95
2018-06-08T14:09:36.825Z,11.50
2018-06-08T14:12:08.204Z,10.13
2018-06-08T14:14:35.678Z,9.73
2018-06-08T14:17:02.932Z,9.80
2018-06-08T14:19:30.142Z,10.05
2018-06-08T14:22:00.183Z,10.98
2018-06-08T14:24:27.603Z,12.43
2018-06-08T14:26:54.801Z,13.00
2018-06-08T14:29:21.997Z,13.70
2018-06-08T14:31:49.221Z,14.07
2018-06-08T14:34:16.440Z,16.57
2018-06-08T14:36:44.787Z,17.57
2018-06-08T14:39:11.989Z,18.60
2018-06-08T14:41:39.196Z,18.77
2018-06-08T14:44:06.408Z,19.00
2018-06-08T14:46:33.616Z,19.20
2018-06-08T14:49:00.833Z,20.20
2018-06-08T14:51:28.045Z,20.00
2018-06-08T14:53:55.242Z,16.60
2018-06-08T14:56:22.506Z,18.87
2018-06-08T14:58:49.705Z,18.53
2018-06-08T15:01:17.027Z,16.70
2018-06-08T15:03:44.305Z,16.00
2018-06-08T15:06:11.537Z,16.20
2018-06-08T15:08:42.498Z,17.10
2018-06-08T15:11:09.826Z,17.20
2018-06-08T15:13:38.834Z,14.23
2018-06-08T15:16:06.190Z,16.60
2018-06-08T15:18:34.750Z,14.70
2018-06-08T15:21:02.230Z,15.57
2018-06-08T15:23:29.602Z,14.50
2018-06-08T15:25:56.845Z,14.90
2018-06-08T15:28:24.076Z,15.20
2018-06-08T15:30:51.298Z,14.10
2018-06-08T15:33:18.504Z,14.90
2018-06-08T15:35:45.812Z,15.73
2018-06-08T15:38:13.002Z,14.37
2018-06-08T15:40:40.386Z,15.17
2018-06-08T15:43:07.738Z,16.50
2018-06-08T15:45:35.054Z,13.97
2018-06-08T15:48:02.355Z,14.40
2018-06-08T15:50:29.629Z,14.23
2018-06-08T15:52:56.840Z,15.37
2018-06-08T15:55:24.107Z,14.90
2018-06-08T15:57:51.364Z,14.93
2018-06-08T16:00:18.569Z,16.33
2018-06-08T16:02:45.918Z,16.50
2018-06-08T16:05:13.153Z,14.17
2018-06-08T16:07:40.428Z,16.40
2018-06-08T16:10:07.670Z,14.43
2018-06-08T16:12:34.892Z,14.00
2018-06-08T16:15:02.121Z,15.60
2018-06-08T16:17:29.368Z,14.70
2018-06-08T16:19:56.669Z,14.50
2018-06-08T16:22:23.904Z,15.07
2018-06-08T16:24:51.076Z,14.57
2018-06-08T16:27:18.287Z,13.37
2018-06-08T16:29:45.479Z,13.80
2018-06-08T16:32:12.719Z,9.50
2018-06-08T16:34:40.294Z,7.80
2018-06-08T16:37:07.538Z,8.10
2018-06-08T16:39:34.915Z,8.30
2018-06-08T16:42:02.177Z,8.90
2018-06-08T16:44:29.430Z,9.37
2018-06-08T16:46:56.641Z,8.97
2018-06-08T16:49:23.854Z,8.43
2018-06-08T16:51:51.049Z,9.57
2018-06-08T16:54:18.280Z,9.20
2018-06-08T16:56:45.544Z,11.67
2018-06-08T16:59:12.758Z,12.00
2018-06-08T17:01:39.957Z,13.97
2018-06-08T17:04:07.197Z,14.60
2018-06-08T17:06:34.423Z,15.50
2018-06-08T17:09:01.652Z,17.60
2018-06-08T17:11:28.884Z,18.93
2018-06-08T17:13:56.106Z,17.97
2018-06-08T17:16:23.333Z,20.77
2018-06-08T17:18:50.612Z,24.73
2018-06-08T17:21:17.793Z,18.77
2018-06-08T17:23:45.014Z,22.80
2018-06-08T17:26:12.263Z,24.90
2018-06-08T17:28:39.509Z,22.47
2018-06-08T17:31:06.722Z,23.70
2018-06-08T17:33:33.953Z,23.13
2018-06-08T17:36:01.169Z,22.90
2018-06-08T17:38:28.844Z,23.37
2018-06-08T17:40:56.125Z,33.90
2018-06-08T17:43:23.400Z,34.90
2018-06-08T17:45:50.614Z,37.27
2018-06-08T17:48:17.905Z,33.50
2018-06-08T17:50:45.126Z,30.20
2018-06-08T17:53:12.342Z,29.97
2018-06-08T17:55:39.553Z,27.57
2018-06-08T17:58:07.132Z,26.40
2018-06-08T18:00:34.385Z,29.00
2018-06-08T18:03:01.598Z,27.97
2018-06-08T18:05:28.828Z,28.73
2018-06-08T18:07:56.071Z,27.40
2018-06-08T18:10:23.265Z,27.67
2018-06-08T18:12:50.480Z,28.80
2018-06-08T18:15:17.714Z,30.43
2018-06-08T18:17:45.471Z,32.07
2018-06-08T18:20:12.618Z,33.37
2018-06-08T18:22:39.837Z,30.97
2018-06-08T18:25:07.045Z,28.80
2018-06-08T18:27:34.262Z,30.60
2018-06-08T18:30:02.354Z,29.23
2018-06-08T18:32:29.553Z,28.50
2018-06-08T18:34:56.784Z,29.70
2018-06-08T18:37:23.985Z,29.73
2018-06-08T18:39:51.208Z,31.80
2018-06-08T18:42:18.653Z,34.47
2018-06-08T18:44:45.870Z,31.27
2018-06-08T18:47:13.064Z,38.90
2018-06-08T18:49:40.341Z,36.87
2018-06-08T18:52:07.552Z,34.07
2018-06-08T18:54:34.766Z,35.97
2018-06-08T18:57:01.990Z,36.20
2018-06-08T18:59:29.188Z,33.13
2018-06-08T19:01:56.440Z,30.27
2018-06-08T19:04:23.708Z,28.40
2018-06-08T19:06:50.908Z,26.50
2018-06-08T19:09:18.104Z,28.60
2018-06-08T19:11:45.312Z,29.33
2018-06-08T19:14:12.545Z,26.63
2018-06-08T19:16:39.753Z,26.80
2018-06-08T19:19:06.945Z,29.00
2018-06-08T19:21:34.146Z,24.37
2018-06-08T19:24:01.370Z,23.40
2018-06-08T19:26:28.548Z,22.63
2018-06-08T19:28:55.753Z,25.13
2018-06-08T19:31:22.953Z,25.53
2018-06-08T19:33:50.154Z,49.13
2018-06-08T19:36:17.352Z,67.00
2018-06-08T19:38:44.636Z,40.57
2018-06-08T19:41:11.843Z,38.17
2018-06-08T19:43:39.060Z,33.90
2018-06-08T19:46:06.339Z,34.33
2018-06-08T19:48:33.542Z,32.10
2018-06-08T19:51:00.741Z,31.80
2018-06-08T19:53:38.215Z,32.73
2018-06-08T19:56:05.401Z,32.17
2018-06-08T19:58:32.663Z,31.87
2018-06-08T20:00:59.776Z,30.63
2018-06-08T20:03:26.958Z,29.73
2018-06-08T20:05:54.161Z,34.10
2018-06-08T20:08:21.346Z,26.97
2018-06-08T20:10:48.551Z,22.97
2018-06-08T20:13:16.228Z,19.80
2018-06-08T20:15:43.425Z,21.30
2018-06-08T20:18:10.833Z,18.10
2018-06-08T20:20:38.053Z,20.60
2018-06-08T20:23:05.247Z,21.33
2018-06-08T20:25:32.550Z,20.70
2018-06-08T20:27:59.749Z,17.70
2018-06-08T20:30:27.005Z,17.60
2018-06-08T20:32:54.205Z,19.60
2018-06-08T20:35:21.658Z,23.10
2018-06-08T20:37:48.878Z,21.63
2018-06-08T20:40:16.379Z,20.70
2018-06-08T20:42:43.614Z,21.10
2018-06-08T20:45:10.832Z,22.87
2018-06-08T20:47:38.035Z,24.83
2018-06-08T20:50:05.278Z,25.77
2018-06-08T20:52:32.517Z,26.73
2018-06-08T20:55:00.246Z,27.90
2018-06-08T20:57:28.380Z,25.90
2018-06-08T20:59:55.605Z,22.37
2018-06-08T21:02:22.902Z,19.63
2018-06-08T21:04:50.055Z,18.87
2018-06-08T21:07:17.415Z,17.70
2018-06-08T21:09:44.632Z,18.00
2018-06-08T21:12:11.836Z,21.17
2018-06-08T21:14:39.037Z,21.07
2018-06-08T21:17:06.234Z,22.23
2018-06-08T21:19:33.513Z,23.20
2018-06-08T21:22:00.714Z,23.50
2018-06-08T21:24:27.914Z,27.60
2018-06-08T21:26:55.140Z,30.20
2018-06-08T21:29:22.314Z,33.43
2018-06-08T21:31:49.613Z,39.10
2018-06-08T21:34:16.804Z,42.37
2018-06-08T21:36:44.154Z,42.60
2018-06-08T21:39:11.427Z,47.10
2018-06-08T21:41:38.630Z,53.97
2018-06-08T21:44:05.949Z,56.67
2018-06-08T21:46:33.142Z,59.80
2018-06-08T21:49:00.348Z,56.90
2018-06-08T21:51:27.532Z,58.73
2018-06-08T21:53:54.740Z,60.07
2018-06-08T21:56:21.950Z,58.27
2018-06-08T21:58:49.157Z,57.90
2018-06-08T22:01:16.352Z,63.20
2018-06-08T22:03:43.549Z,64.97
2018-06-08T22:06:10.757Z,64.57
2018-06-08T22:08:37.953Z,58.77
2018-06-08T22:11:05.165Z,55.50
2018-06-08T22:13:33.363Z,54.20
2018-06-08T22:16:00.686Z,55.30
2018-06-08T22:18:27.916Z,156.53
2018-06-08T22:20:55.215Z,77.40
2018-06-08T22:23:22.463Z,56.87
2018-06-08T22:25:49.692Z,59.70
2018-06-08T22:28:16.913Z,58.50
2018-06-08T22:30:44.133Z,59.27
2018-06-08T22:33:11.353Z,60.00
2018-06-08T22:35:38.633Z,58.47
2018-06-08T22:38:05.850Z,54.63
2018-06-08T22:40:33.321Z,50.50
2018-06-08T22:43:00.600Z,44.60
2018-06-08T22:45:28.016Z,41.07
2018-06-08T22:47:55.241Z,36.80
2018-06-08T22:50:22.490Z,34.60
2018-06-08T22:52:49.722Z,34.67
2018-06-08T22:55:16.949Z,32.60
2018-06-08T22:57:44.161Z,32.33
2018-06-08T23:00:11.781Z,28.63
2018-06-08T23:02:39.020Z,29.80
2018-06-08T23:05:06.245Z,28.33
2018-06-08T23:07:33.453Z,31.13
2018-06-08T23:10:00.674Z,31.70
2018-06-08T23:12:27.901Z,29.70
2018-06-08T23:14:55.116Z,32.97
2018-06-08T23:17:26.461Z,32.13
2018-06-08T23:19:54.133Z,33.60
2018-06-08T23:22:21.358Z,46.70
2018-06-08T23:24:48.609Z,47.60
2018-06-08T23:27:15.832Z,61.10
2018-06-08T23:29:43.045Z,60.40
2018-06-08T23:32:10.261Z,78.63
2018-06-08T23:34:37.477Z,81.07
2018-06-08T23:37:04.711Z,83.40
2018-06-08T23:39:31.921Z,83.13
2018-06-08T23:41:59.153Z,81.60
2018-06-08T23:44:26.445Z,76.80
2018-06-08T23:46:53.665Z,74.90
2018-06-08T23:49:20.874Z,66.30
2018-06-08T23:51:48.109Z,66.30
2018-06-08T23:54:15.316Z,65.17
2018-06-08T23:56:42.525Z,73.80
2018-06-08T23:59:09.743Z,69.07
